sensor_id;sensor_type;location;lat;lon;timestamp;P1;durP1;ratioP1;P2;durP2;ratioP2
10013;SDS011;45684;48.358;10.746;2024-02-28T00:00:20;284.63;;;270.77;;
10013;SDS011;45684;48.358;10.746;2024-02-28T00:02:49;280.87;;;267.47;;
10013;SDS011;45684;48.358;10.746;2024-02-28T00:05:17;296.77;;;283.00;;
10013;SDS011;45684;48.358;10.746;2024-02-28T00:07:45;298.33;;;284.00;;
10013;SDS011;45684;48.358;10.746;2024-02-28T00:10:13;288.70;;;275.07;;
10013;SDS011;45684;48.358;10.746;2024-02-28T00:12:41;291.13;;;277.60;;
10013;SDS011;45684;48.358;10.746;2024-02-28T00:15:09;288.27;;;274.30;;
10013;SDS011;45684;48.358;10.746;2024-02-28T00:17:38;286.43;;;272.83;;
10013;SDS011;45684;48.358;10.746;2024-02-28T00:20:09;272.67;;;259.50;;
10013;SDS011;45684;48.358;10.746;2024-02-28T00:22:38;286.07;;;272.50;;
10013;SDS011;45684;48.358;10.746;2024-02-28T00:25:06;276.60;;;263.47;;
10013;SDS011;45684;48.358;10.746;2024-02-28T00:27:36;260.53;;;248.03;;
10013;SDS011;45684;48.358;10.746;2024-02-28T00:30:04;257.40;;;244.87;;
10013;SDS011;45684;48.358;10.746;2024-02-28T00:32:33;278.00;;;265.17;;
10013;SDS011;45684;48.358;10.746;2024-02-28T00:35:01;256.37;;;244.53;;
10013;SDS011;45684;48.358;10.746;2024-02-28T00:37:31;257.97;;;246.07;;
10013;SDS011;45684;48.358;10.746;2024-02-28T00:39:59;253.53;;;241.23;;
10013;SDS011;45684;48.358;10.746;2024-02-28T00:42:27;290.57;;;277.00;;
10013;SDS011;45684;48.358;10.746;2024-02-28T00:44:55;289.00;;;275.87;;
10013;SDS011;45684;48.358;10.746;2024-02-28T00:47:23;274.80;;;261.70;;
10013;SDS011;45684;48.358;10.746;2024-02-28T00:49:52;283.83;;;270.13;;
10013;SDS011;45684;48.358;10.746;2024-02-28T00:52:19;281.67;;;268.53;;
10013;SDS011;45684;48.358;10.746;2024-02-28T00:54:49;285.73;;;272.17;;
10013;SDS011;45684;48.358;10.746;2024-02-28T00:57:17;293.90;;;279.87;;
10013;SDS011;45684;48.358;10.746;2024-02-28T00:59:45;297.63;;;283.53;;
10013;SDS011;45684;48.358;10.746;2024-02-28T01:02:13;283.40;;;270.07;;
10013;SDS011;45684;48.358;10.746;2024-02-28T01:04:41;303.30;;;289.03;;
10013;SDS011;45684;48.358;10.746;2024-02-28T01:07:08;290.23;;;276.47;;
10013;SDS011;45684;48.358;10.746;2024-02-28T01:09:36;297.17;;;282.80;;
10013;SDS011;45684;48.358;10.746;2024-02-28T01:12:06;296.17;;;282.00;;
10013;SDS011;45684;48.358;10.746;2024-02-28T01:14:34;303.03;;;288.63;;
10013;SDS011;45684;48.358;10.746;2024-02-28T01:17:02;294.77;;;280.53;;
10013;SDS011;45684;48.358;10.746;2024-02-28T01:19:30;288.63;;;274.93;;
10013;SDS011;45684;48.358;10.746;2024-02-28T01:21:58;290.27;;;276.33;;
10013;SDS011;45684;48.358;10.746;2024-02-28T01:24:26;308.97;;;294.03;;
10013;SDS011;45684;48.358;10.746;2024-02-28T01:26:54;293.33;;;279.53;;
10013;SDS011;45684;48.358;10.746;2024-02-28T01:29:23;257.53;;;245.30;;
10013;SDS011;45684;48.358;10.746;2024-02-28T01:31:51;274.47;;;261.37;;
10013;SDS011;45684;48.358;10.746;2024-02-28T01:34:19;287.80;;;274.07;;
10013;SDS011;45684;48.358;10.746;2024-02-28T01:36:46;288.83;;;274.93;;
10013;SDS011;45684;48.358;10.746;2024-02-28T01:39:14;288.77;;;274.83;;
10013;SDS011;45684;48.358;10.746;2024-02-28T01:41:49;297.40;;;282.77;;
10013;SDS011;45684;48.358;10.746;2024-02-28T01:44:18;287.93;;;273.57;;
10013;SDS011;45684;48.358;10.746;2024-02-28T01:46:47;280.93;;;267.60;;
10013;SDS011;45684;48.358;10.746;2024-02-28T01:49:16;290.60;;;276.60;;
10013;SDS011;45684;48.358;10.746;2024-02-28T01:51:44;284.97;;;271.50;;
10013;SDS011;45684;48.358;10.746;2024-02-28T01:54:14;288.67;;;274.90;;
10013;SDS011;45684;48.358;10.746;2024-02-28T01:56:43;280.50;;;267.07;;
10013;SDS011;45684;48.358;10.746;2024-02-28T01:59:12;275.10;;;261.87;;
10013;SDS011;45684;48.358;10.746;2024-02-28T02:01:41;281.20;;;267.90;;
10013;SDS011;45684;48.358;10.746;2024-02-28T02:04:11;285.97;;;272.33;;
10013;SDS011;45684;48.358;10.746;2024-02-28T02:06:41;281.57;;;268.40;;
10013;SDS011;45684;48.358;10.746;2024-02-28T02:09:10;251.20;;;239.00;;
10013;SDS011;45684;48.358;10.746;2024-02-28T02:11:39;271.20;;;257.90;;
10013;SDS011;45684;48.358;10.746;2024-02-28T02:14:07;273.90;;;260.87;;
10013;SDS011;45684;48.358;10.746;2024-02-28T02:16:34;278.47;;;265.40;;
10013;SDS011;45684;48.358;10.746;2024-02-28T02:19:02;267.20;;;254.30;;
10013;SDS011;45684;48.358;10.746;2024-02-28T02:21:34;275.17;;;261.97;;
10013;SDS011;45684;48.358;10.746;2024-02-28T02:24:06;279.73;;;266.53;;
10013;SDS011;45684;48.358;10.746;2024-02-28T02:26:34;281.77;;;268.40;;
10013;SDS011;45684;48.358;10.746;2024-02-28T02:29:02;285.83;;;272.33;;
10013;SDS011;45684;48.358;10.746;2024-02-28T02:31:30;283.23;;;269.73;;
10013;SDS011;45684;48.358;10.746;2024-02-28T02:33:58;289.73;;;275.53;;
10013;SDS011;45684;48.358;10.746;2024-02-28T02:36:26;293.67;;;279.60;;
10013;SDS011;45684;48.358;10.746;2024-02-28T02:38:54;297.23;;;282.93;;
10013;SDS011;45684;48.358;10.746;2024-02-28T02:41:23;297.07;;;282.17;;
10013;SDS011;45684;48.358;10.746;2024-02-28T02:43:51;307.47;;;292.47;;
10013;SDS011;45684;48.358;10.746;2024-02-28T02:46:19;298.37;;;283.27;;
10013;SDS011;45684;48.358;10.746;2024-02-28T02:48:47;298.57;;;283.67;;
10013;SDS011;45684;48.358;10.746;2024-02-28T02:51:15;298.47;;;283.90;;
10013;SDS011;45684;48.358;10.746;2024-02-28T02:53:44;304.83;;;289.90;;
10013;SDS011;45684;48.358;10.746;2024-02-28T02:56:12;301.47;;;286.30;;
10013;SDS011;45684;48.358;10.746;2024-02-28T02:58:41;292.63;;;278.03;;
10013;SDS011;45684;48.358;10.746;2024-02-28T03:01:09;292.13;;;277.50;;
10013;SDS011;45684;48.358;10.746;2024-02-28T03:03:37;286.90;;;272.87;;
10013;SDS011;45684;48.358;10.746;2024-02-28T03:06:05;292.53;;;278.17;;
10013;SDS011;45684;48.358;10.746;2024-02-28T03:08:33;302.47;;;287.63;;
10013;SDS011;45684;48.358;10.746;2024-02-28T03:11:00;309.63;;;294.20;;
10013;SDS011;45684;48.358;10.746;2024-02-28T03:13:30;294.10;;;279.37;;
10013;SDS011;45684;48.358;10.746;2024-02-28T03:16:00;270.70;;;257.40;;
10013;SDS011;45684;48.358;10.746;2024-02-28T03:18:27;289.17;;;274.83;;
10013;SDS011;45684;48.358;10.746;2024-02-28T03:20:55;288.37;;;274.33;;
10013;SDS011;45684;48.358;10.746;2024-02-28T03:23:23;294.47;;;279.70;;
10013;SDS011;45684;48.358;10.746;2024-02-28T03:25:52;287.53;;;273.37;;
10013;SDS011;45684;48.358;10.746;2024-02-28T03:28:19;297.23;;;282.90;;
10013;SDS011;45684;48.358;10.746;2024-02-28T03:30:47;296.90;;;282.00;;
10013;SDS011;45684;48.358;10.746;2024-02-28T03:33:17;308.53;;;293.00;;
10013;SDS011;45684;48.358;10.746;2024-02-28T03:35:45;303.20;;;288.30;;
10013;SDS011;45684;48.358;10.746;2024-02-28T03:38:13;280.83;;;266.87;;
10013;SDS011;45684;48.358;10.746;2024-02-28T03:40:41;302.10;;;287.17;;
10013;SDS011;45684;48.358;10.746;2024-02-28T03:43:09;251.40;;;238.73;;
10013;SDS011;45684;48.358;10.746;2024-02-28T03:45:37;240.67;;;228.40;;
10013;SDS011;45684;48.358;10.746;2024-02-28T03:48:05;261.13;;;248.10;;
10013;SDS011;45684;48.358;10.746;2024-02-28T03:50:35;254.53;;;241.67;;
10013;SDS011;45684;48.358;10.746;2024-02-28T03:53:03;238.30;;;226.13;;
10013;SDS011;45684;48.358;10.746;2024-02-28T03:55:32;250.40;;;237.60;;
10013;SDS011;45684;48.358;10.746;2024-02-28T03:57:59;271.20;;;258.03;;
10013;SDS011;45684;48.358;10.746;2024-02-28T04:00:27;286.67;;;272.80;;
10013;SDS011;45684;48.358;10.746;2024-02-28T04:02:55;297.10;;;282.23;;
10013;SDS011;45684;48.358;10.746;2024-02-28T04:05:23;247.93;;;234.80;;
10013;SDS011;45684;48.358;10.746;2024-02-28T04:07:52;299.70;;;284.50;;
10013;SDS011;45684;48.358;10.746;2024-02-28T04:10:20;275.57;;;261.80;;
10013;SDS011;45684;48.358;10.746;2024-02-28T04:12:48;258.10;;;245.07;;
10013;SDS011;45684;48.358;10.746;2024-02-28T04:15:16;255.83;;;242.83;;
10013;SDS011;45684;48.358;10.746;2024-02-28T04:17:44;231.87;;;219.87;;
10013;SDS011;45684;48.358;10.746;2024-02-28T04:20:12;320.17;;;303.03;;
10013;SDS011;45684;48.358;10.746;2024-02-28T04:22:40;290.10;;;274.97;;
10013;SDS011;45684;48.358;10.746;2024-02-28T04:25:10;294.27;;;279.10;;
10013;SDS011;45684;48.358;10.746;2024-02-28T04:27:38;306.20;;;291.20;;
10013;SDS011;45684;48.358;10.746;2024-02-28T04:30:07;262.63;;;249.70;;
10013;SDS011;45684;48.358;10.746;2024-02-28T04:32:35;256.50;;;244.00;;
10013;SDS011;45684;48.358;10.746;2024-02-28T04:35:04;238.63;;;226.27;;
10013;SDS011;45684;48.358;10.746;2024-02-28T04:37:32;228.87;;;216.77;;
10013;SDS011;45684;48.358;10.746;2024-02-28T04:40:02;282.30;;;267.93;;
10013;SDS011;45684;48.358;10.746;2024-02-28T04:42:32;300.27;;;285.23;;
10013;SDS011;45684;48.358;10.746;2024-02-28T04:45:00;261.60;;;248.40;;
10013;SDS011;45684;48.358;10.746;2024-02-28T04:47:29;257.83;;;244.97;;
10013;SDS011;45684;48.358;10.746;2024-02-28T04:50:09;237.93;;;225.67;;
10013;SDS011;45684;48.358;10.746;2024-02-28T04:52:37;245.93;;;233.07;;
10013;SDS011;45684;48.358;10.746;2024-02-28T04:55:05;228.47;;;216.50;;
10013;SDS011;45684;48.358;10.746;2024-02-28T04:57:35;232.73;;;220.10;;
10013;SDS011;45684;48.358;10.746;2024-02-28T05:00:03;271.97;;;257.60;;
10013;SDS011;45684;48.358;10.746;2024-02-28T05:02:32;287.77;;;273.20;;
10013;SDS011;45684;48.358;10.746;2024-02-28T05:05:00;269.17;;;255.40;;
10013;SDS011;45684;48.358;10.746;2024-02-28T05:07:28;270.07;;;256.30;;
10013;SDS011;45684;48.358;10.746;2024-02-28T05:09:56;266.97;;;253.70;;
10013;SDS011;45684;48.358;10.746;2024-02-28T05:12:23;266.43;;;252.53;;
10013;SDS011;45684;48.358;10.746;2024-02-28T05:14:53;288.47;;;274.13;;
10013;SDS011;45684;48.358;10.746;2024-02-28T05:17:21;258.40;;;244.77;;
10013;SDS011;45684;48.358;10.746;2024-02-28T05:19:49;267.17;;;253.67;;
10013;SDS011;45684;48.358;10.746;2024-02-28T05:22:16;252.83;;;239.37;;
10013;SDS011;45684;48.358;10.746;2024-02-28T05:24:45;243.33;;;230.33;;
10013;SDS011;45684;48.358;10.746;2024-02-28T05:27:13;210.13;;;198.77;;
10013;SDS011;45684;48.358;10.746;2024-02-28T05:29:41;263.40;;;249.60;;
10013;SDS011;45684;48.358;10.746;2024-02-28T05:32:10;294.03;;;278.83;;
10013;SDS011;45684;48.358;10.746;2024-02-28T05:34:39;259.23;;;245.27;;
10013;SDS011;45684;48.358;10.746;2024-02-28T05:37:07;262.03;;;248.33;;
10013;SDS011;45684;48.358;10.746;2024-02-28T05:39:34;251.33;;;237.57;;
10013;SDS011;45684;48.358;10.746;2024-02-28T05:42:03;216.97;;;204.83;;
10013;SDS011;45684;48.358;10.746;2024-02-28T05:44:31;161.53;;;152.00;;
10013;SDS011;45684;48.358;10.746;2024-02-28T05:47:00;160.87;;;151.27;;
10013;SDS011;45684;48.358;10.746;2024-02-28T05:49:30;140.20;;;131.43;;
10013;SDS011;45684;48.358;10.746;2024-02-28T05:51:58;113.80;;;106.37;;
10013;SDS011;45684;48.358;10.746;2024-02-28T05:54:26;163.47;;;153.33;;
10013;SDS011;45684;48.358;10.746;2024-02-28T05:56:56;163.57;;;153.97;;
10013;SDS011;45684;48.358;10.746;2024-02-28T05:59:24;150.00;;;140.67;;
10013;SDS011;45684;48.358;10.746;2024-02-28T06:01:52;171.83;;;161.43;;
10013;SDS011;45684;48.358;10.746;2024-02-28T06:04:20;158.83;;;149.10;;
10013;SDS011;45684;48.358;10.746;2024-02-28T06:06:50;219.03;;;206.83;;
10013;SDS011;45684;48.358;10.746;2024-02-28T06:09:18;211.30;;;199.83;;
10013;SDS011;45684;48.358;10.746;2024-02-28T06:11:46;194.40;;;183.27;;
10013;SDS011;45684;48.358;10.746;2024-02-28T06:14:14;153.07;;;143.57;;
10013;SDS011;45684;48.358;10.746;2024-02-28T06:16:41;245.97;;;232.77;;
10013;SDS011;45684;48.358;10.746;2024-02-28T06:19:09;218.47;;;206.53;;
10013;SDS011;45684;48.358;10.746;2024-02-28T06:21:37;174.77;;;164.27;;
10013;SDS011;45684;48.358;10.746;2024-02-28T06:24:06;185.77;;;174.70;;
10013;SDS011;45684;48.358;10.746;2024-02-28T06:26:34;159.43;;;149.57;;
10013;SDS011;45684;48.358;10.746;2024-02-28T06:29:02;205.23;;;194.03;;
10013;SDS011;45684;48.358;10.746;2024-02-28T06:31:32;188.90;;;178.00;;
10013;SDS011;45684;48.358;10.746;2024-02-28T06:34:00;255.97;;;242.27;;
10013;SDS011;45684;48.358;10.746;2024-02-28T06:36:28;255.67;;;242.10;;
10013;SDS011;45684;48.358;10.746;2024-02-28T06:38:57;235.47;;;222.37;;
10013;SDS011;45684;48.358;10.746;2024-02-28T06:41:27;209.23;;;197.30;;
10013;SDS011;45684;48.358;10.746;2024-02-28T06:43:54;230.53;;;217.87;;
10013;SDS011;45684;48.358;10.746;2024-02-28T06:46:22;206.90;;;194.97;;
10013;SDS011;45684;48.358;10.746;2024-02-28T06:48:50;241.67;;;228.00;;
10013;SDS011;45684;48.358;10.746;2024-02-28T06:51:18;248.57;;;235.00;;
10013;SDS011;45684;48.358;10.746;2024-02-28T06:53:46;248.50;;;235.30;;
10013;SDS011;45684;48.358;10.746;2024-02-28T06:56:14;229.20;;;216.43;;
10013;SDS011;45684;48.358;10.746;2024-02-28T06:58:43;226.13;;;213.93;;
10013;SDS011;45684;48.358;10.746;2024-02-28T07:01:11;241.30;;;228.13;;
10013;SDS011;45684;48.358;10.746;2024-02-28T07:03:39;230.20;;;217.10;;
10013;SDS011;45684;48.358;10.746;2024-02-28T07:06:07;215.93;;;204.07;;
10013;SDS011;45684;48.358;10.746;2024-02-28T07:08:35;264.87;;;250.67;;
10013;SDS011;45684;48.358;10.746;2024-02-28T07:11:03;254.13;;;240.53;;
10013;SDS011;45684;48.358;10.746;2024-02-28T07:13:31;183.93;;;172.90;;
10013;SDS011;45684;48.358;10.746;2024-02-28T07:16:00;192.30;;;181.23;;
10013;SDS011;45684;48.358;10.746;2024-02-28T07:18:28;183.60;;;173.13;;
10013;SDS011;45684;48.358;10.746;2024-02-28T07:20:56;237.73;;;224.40;;
10013;SDS011;45684;48.358;10.746;2024-02-28T07:23:24;227.07;;;214.33;;
10013;SDS011;45684;48.358;10.746;2024-02-28T07:25:52;242.73;;;229.37;;
10013;SDS011;45684;48.358;10.746;2024-02-28T07:28:20;252.50;;;238.67;;
10013;SDS011;45684;48.358;10.746;2024-02-28T07:30:48;218.87;;;206.70;;
10013;SDS011;45684;48.358;10.746;2024-02-28T07:33:17;210.77;;;199.20;;
10013;SDS011;45684;48.358;10.746;2024-02-28T07:35:45;197.43;;;185.73;;
10013;SDS011;45684;48.358;10.746;2024-02-28T07:38:13;289.00;;;273.07;;
10013;SDS011;45684;48.358;10.746;2024-02-28T07:40:43;252.50;;;238.40;;
10013;SDS011;45684;48.358;10.746;2024-02-28T07:43:11;228.43;;;215.33;;
10013;SDS011;45684;48.358;10.746;2024-02-28T07:45:39;285.87;;;270.57;;
10013;SDS011;45684;48.358;10.746;2024-02-28T07:48:07;262.37;;;247.93;;
10013;SDS011;45684;48.358;10.746;2024-02-28T07:50:36;230.80;;;217.80;;
10013;SDS011;45684;48.358;10.746;2024-02-28T07:53:04;301.80;;;285.47;;
10013;SDS011;45684;48.358;10.746;2024-02-28T07:55:32;308.17;;;291.43;;
10013;SDS011;45684;48.358;10.746;2024-02-28T07:58:00;343.40;;;324.97;;
10013;SDS011;45684;48.358;10.746;2024-02-28T08:00:28;347.20;;;328.20;;
10013;SDS011;45684;48.358;10.746;2024-02-28T08:03:00;330.87;;;312.90;;
10013;SDS011;45684;48.358;10.746;2024-02-28T08:05:28;333.97;;;315.83;;
10013;SDS011;45684;48.358;10.746;2024-02-28T08:07:57;326.93;;;309.53;;
10013;SDS011;45684;48.358;10.746;2024-02-28T08:10:25;316.60;;;299.37;;
10013;SDS011;45684;48.358;10.746;2024-02-28T08:12:53;314.53;;;296.83;;
10013;SDS011;45684;48.358;10.746;2024-02-28T08:15:21;316.20;;;298.57;;
10013;SDS011;45684;48.358;10.746;2024-02-28T08:17:49;305.07;;;287.80;;
10013;SDS011;45684;48.358;10.746;2024-02-28T08:20:17;264.20;;;249.77;;
10013;SDS011;45684;48.358;10.746;2024-02-28T08:22:45;204.20;;;192.67;;
10013;SDS011;45684;48.358;10.746;2024-02-28T08:25:14;225.27;;;212.50;;
10013;SDS011;45684;48.358;10.746;2024-02-28T08:27:42;188.97;;;178.13;;
10013;SDS011;45684;48.358;10.746;2024-02-28T08:30:10;213.50;;;201.13;;
10013;SDS011;45684;48.358;10.746;2024-02-28T08:32:40;220.00;;;207.10;;
10013;SDS011;45684;48.358;10.746;2024-02-28T08:35:08;211.03;;;198.87;;
10013;SDS011;45684;48.358;10.746;2024-02-28T08:37:38;254.07;;;238.97;;
10013;SDS011;45684;48.358;10.746;2024-02-28T08:40:06;285.83;;;269.10;;
10013;SDS011;45684;48.358;10.746;2024-02-28T08:42:36;262.23;;;246.40;;
10013;SDS011;45684;48.358;10.746;2024-02-28T08:45:05;232.10;;;218.73;;
10013;SDS011;45684;48.358;10.746;2024-02-28T08:47:33;272.60;;;256.27;;
10013;SDS011;45684;48.358;10.746;2024-02-28T08:50:01;298.67;;;280.40;;
10013;SDS011;45684;48.358;10.746;2024-02-28T08:52:29;286.93;;;269.67;;
10013;SDS011;45684;48.358;10.746;2024-02-28T08:54:57;211.93;;;199.83;;
10013;SDS011;45684;48.358;10.746;2024-02-28T08:57:25;283.67;;;263.93;;
10013;SDS011;45684;48.358;10.746;2024-02-28T08:59:55;298.93;;;276.93;;
10013;SDS011;45684;48.358;10.746;2024-02-28T09:02:23;287.73;;;270.67;;
10013;SDS011;45684;48.358;10.746;2024-02-28T09:04:51;315.30;;;297.27;;
10013;SDS011;45684;48.358;10.746;2024-02-28T09:07:23;294.23;;;276.50;;
10013;SDS011;45684;48.358;10.746;2024-02-28T09:09:50;300.20;;;282.47;;
10013;SDS011;45684;48.358;10.746;2024-02-28T09:12:18;312.83;;;295.60;;
10013;SDS011;45684;48.358;10.746;2024-02-28T09:14:46;278.13;;;260.67;;
10013;SDS011;45684;48.358;10.746;2024-02-28T09:17:22;220.07;;;206.80;;
10013;SDS011;45684;48.358;10.746;2024-02-28T09:19:50;279.73;;;259.67;;
10013;SDS011;45684;48.358;10.746;2024-02-28T09:22:18;282.83;;;265.93;;
10013;SDS011;45684;48.358;10.746;2024-02-28T09:24:47;332.67;;;315.10;;
10013;SDS011;45684;48.358;10.746;2024-02-28T09:27:15;346.60;;;328.30;;
10013;SDS011;45684;48.358;10.746;2024-02-28T09:29:44;282.17;;;262.90;;
10013;SDS011;45684;48.358;10.746;2024-02-28T09:32:12;324.07;;;306.10;;
10013;SDS011;45684;48.358;10.746;2024-02-28T09:34:42;337.70;;;319.57;;
10013;SDS011;45684;48.358;10.746;2024-02-28T09:37:10;289.93;;;272.50;;
10013;SDS011;45684;48.358;10.746;2024-02-28T09:39:38;284.77;;;267.43;;
10013;SDS011;45684;48.358;10.746;2024-02-28T09:42:06;299.73;;;281.77;;
10013;SDS011;45684;48.358;10.746;2024-02-28T09:44:35;317.53;;;300.73;;
10013;SDS011;45684;48.358;10.746;2024-02-28T09:47:05;323.03;;;305.27;;
10013;SDS011;45684;48.358;10.746;2024-02-28T09:49:33;331.80;;;314.07;;
10013;SDS011;45684;48.358;10.746;2024-02-28T09:52:04;331.83;;;313.67;;
10013;SDS011;45684;48.358;10.746;2024-02-28T09:54:33;278.67;;;262.23;;
10013;SDS011;45684;48.358;10.746;2024-02-28T09:57:00;293.97;;;276.57;;
10013;SDS011;45684;48.358;10.746;2024-02-28T09:59:28;287.13;;;270.23;;
10013;SDS011;45684;48.358;10.746;2024-02-28T10:02:12;344.53;;;326.43;;
10013;SDS011;45684;48.358;10.746;2024-02-28T10:04:44;267.40;;;250.50;;
10013;SDS011;45684;48.358;10.746;2024-02-28T10:07:14;335.27;;;313.33;;
10013;SDS011;45684;48.358;10.746;2024-02-28T10:09:42;336.57;;;312.63;;
10013;SDS011;45684;48.358;10.746;2024-02-28T10:12:09;335.00;;;311.87;;
10013;SDS011;45684;48.358;10.746;2024-02-28T10:14:37;362.17;;;341.27;;
10013;SDS011;45684;48.358;10.746;2024-02-28T10:17:06;367.17;;;347.53;;
10013;SDS011;45684;48.358;10.746;2024-02-28T10:19:34;305.07;;;284.30;;
10013;SDS011;45684;48.358;10.746;2024-02-28T10:22:02;338.97;;;316.83;;
10013;SDS011;45684;48.358;10.746;2024-02-28T10:24:33;335.77;;;311.60;;
10013;SDS011;45684;48.358;10.746;2024-02-28T10:27:04;312.40;;;293.73;;
10013;SDS011;45684;48.358;10.746;2024-02-28T10:29:32;288.23;;;271.43;;
10013;SDS011;45684;48.358;10.746;2024-02-28T10:32:00;161.13;;;150.63;;
10013;SDS011;45684;48.358;10.746;2024-02-28T10:34:29;180.67;;;169.80;;
10013;SDS011;45684;48.358;10.746;2024-02-28T10:36:57;335.77;;;316.50;;
10013;SDS011;45684;48.358;10.746;2024-02-28T10:39:25;322.13;;;305.10;;
10013;SDS011;45684;48.358;10.746;2024-02-28T10:41:57;349.83;;;329.53;;
10013;SDS011;45684;48.358;10.746;2024-02-28T10:44:27;388.93;;;363.43;;
10013;SDS011;45684;48.358;10.746;2024-02-28T10:46:57;418.37;;;391.40;;
10013;SDS011;45684;48.358;10.746;2024-02-28T10:49:27;403.60;;;377.30;;
10013;SDS011;45684;48.358;10.746;2024-02-28T10:51:56;343.63;;;323.80;;
10013;SDS011;45684;48.358;10.746;2024-02-28T10:54:27;340.03;;;321.90;;
10013;SDS011;45684;48.358;10.746;2024-02-28T10:57:00;360.67;;;338.60;;
10013;SDS011;45684;48.358;10.746;2024-02-28T10:59:28;383.67;;;358.40;;
10013;SDS011;45684;48.358;10.746;2024-02-28T11:01:57;392.50;;;369.93;;
10013;SDS011;45684;48.358;10.746;2024-02-28T11:04:25;353.07;;;333.93;;
10013;SDS011;45684;48.358;10.746;2024-02-28T11:06:54;361.07;;;339.10;;
10013;SDS011;45684;48.358;10.746;2024-02-28T11:09:23;377.27;;;353.43;;
10013;SDS011;45684;48.358;10.746;2024-02-28T11:11:53;401.07;;;374.17;;
10013;SDS011;45684;48.358;10.746;2024-02-28T11:14:24;418.60;;;391.47;;
10013;SDS011;45684;48.358;10.746;2024-02-28T11:17:00;423.23;;;394.93;;
10013;SDS011;45684;48.358;10.746;2024-02-28T11:19:28;455.17;;;426.87;;
10013;SDS011;45684;48.358;10.746;2024-02-28T11:21:57;437.93;;;409.70;;
10013;SDS011;45684;48.358;10.746;2024-02-28T11:24:28;367.60;;;348.30;;
10013;SDS011;45684;48.358;10.746;2024-02-28T11:26:58;354.27;;;332.93;;
10013;SDS011;45684;48.358;10.746;2024-02-28T11:29:28;363.40;;;340.33;;
10013;SDS011;45684;48.358;10.746;2024-02-28T11:31:57;400.70;;;373.07;;
10013;SDS011;45684;48.358;10.746;2024-02-28T11:34:25;399.47;;;371.80;;
10013;SDS011;45684;48.358;10.746;2024-02-28T11:36:53;223.80;;;209.73;;
10013;SDS011;45684;48.358;10.746;2024-02-28T11:39:22;224.30;;;210.10;;
10013;SDS011;45684;48.358;10.746;2024-02-28T11:41:51;348.07;;;324.60;;
10013;SDS011;45684;48.358;10.746;2024-02-28T11:44:19;213.07;;;199.30;;
10013;SDS011;45684;48.358;10.746;2024-02-28T11:46:48;293.07;;;276.23;;
10013;SDS011;45684;48.358;10.746;2024-02-28T11:49:17;205.67;;;192.57;;
10013;SDS011;45684;48.358;10.746;2024-02-28T11:51:45;173.43;;;162.47;;
10013;SDS011;45684;48.358;10.746;2024-02-28T11:54:13;224.03;;;210.73;;
10013;SDS011;45684;48.358;10.746;2024-02-28T11:56:41;251.57;;;236.60;;
10013;SDS011;45684;48.358;10.746;2024-02-28T11:59:10;189.47;;;178.50;;
10013;SDS011;45684;48.358;10.746;2024-02-28T12:01:40;214.37;;;201.87;;
10013;SDS011;45684;48.358;10.746;2024-02-28T12:04:12;192.40;;;181.17;;
10013;SDS011;45684;48.358;10.746;2024-02-28T12:06:40;218.37;;;205.83;;
10013;SDS011;45684;48.358;10.746;2024-02-28T12:09:10;236.70;;;223.23;;
10013;SDS011;45684;48.358;10.746;2024-02-28T12:11:50;251.60;;;237.03;;
10013;SDS011;45684;48.358;10.746;2024-02-28T12:14:17;253.10;;;238.87;;
10013;SDS011;45684;48.358;10.746;2024-02-28T12:16:45;246.20;;;232.03;;
10013;SDS011;45684;48.358;10.746;2024-02-28T12:19:17;188.23;;;177.17;;
10013;SDS011;45684;48.358;10.746;2024-02-28T12:21:47;187.27;;;176.40;;
10013;SDS011;45684;48.358;10.746;2024-02-28T12:24:14;125.43;;;117.53;;
10013;SDS011;45684;48.358;10.746;2024-02-28T12:26:43;162.13;;;151.57;;
10013;SDS011;45684;48.358;10.746;2024-02-28T12:29:11;152.63;;;143.00;;
10013;SDS011;45684;48.358;10.746;2024-02-28T12:31:39;173.40;;;162.53;;
10013;SDS011;45684;48.358;10.746;2024-02-28T12:34:07;149.40;;;139.63;;
10013;SDS011;45684;48.358;10.746;2024-02-28T12:36:37;162.93;;;152.40;;
10013;SDS011;45684;48.358;10.746;2024-02-28T12:39:04;165.73;;;154.83;;
10013;SDS011;45684;48.358;10.746;2024-02-28T12:41:37;211.33;;;197.77;;
10013;SDS011;45684;48.358;10.746;2024-02-28T12:44:05;167.30;;;156.37;;
10013;SDS011;45684;48.358;10.746;2024-02-28T12:46:34;177.73;;;166.20;;
10013;SDS011;45684;48.358;10.746;2024-02-28T12:49:03;321.77;;;301.33;;
10013;SDS011;45684;48.358;10.746;2024-02-28T12:51:40;341.70;;;319.13;;
10013;SDS011;45684;48.358;10.746;2024-02-28T12:54:10;211.80;;;198.40;;
10013;SDS011;45684;48.358;10.746;2024-02-28T12:56:39;350.07;;;329.20;;
10013;SDS011;45684;48.358;10.746;2024-02-28T12:59:09;366.97;;;342.70;;
10013;SDS011;45684;48.358;10.746;2024-02-28T13:01:37;357.43;;;334.60;;
10013;SDS011;45684;48.358;10.746;2024-02-28T13:04:05;276.23;;;257.63;;
10013;SDS011;45684;48.358;10.746;2024-02-28T13:06:33;307.93;;;287.90;;
10013;SDS011;45684;48.358;10.746;2024-02-28T13:09:03;214.23;;;201.83;;
10013;SDS011;45684;48.358;10.746;2024-02-28T13:11:32;260.03;;;243.77;;
10013;SDS011;45684;48.358;10.746;2024-02-28T13:14:01;233.93;;;220.20;;
10013;SDS011;45684;48.358;10.746;2024-02-28T13:16:29;198.83;;;186.17;;
10013;SDS011;45684;48.358;10.746;2024-02-28T13:18:57;204.40;;;191.90;;
10013;SDS011;45684;48.358;10.746;2024-02-28T13:21:25;225.50;;;212.13;;
10013;SDS011;45684;48.358;10.746;2024-02-28T13:23:53;207.70;;;195.27;;
10013;SDS011;45684;48.358;10.746;2024-02-28T13:26:22;132.53;;;123.43;;
10013;SDS011;45684;48.358;10.746;2024-02-28T13:28:50;120.83;;;113.13;;
10013;SDS011;45684;48.358;10.746;2024-02-28T13:31:20;151.03;;;141.60;;
10013;SDS011;45684;48.358;10.746;2024-02-28T13:33:48;224.90;;;211.30;;
10013;SDS011;45684;48.358;10.746;2024-02-28T13:36:16;156.00;;;146.60;;
10013;SDS011;45684;48.358;10.746;2024-02-28T13:38:44;242.37;;;227.73;;
10013;SDS011;45684;48.358;10.746;2024-02-28T13:41:12;140.53;;;131.83;;
10013;SDS011;45684;48.358;10.746;2024-02-28T13:43:41;155.67;;;146.13;;
10013;SDS011;45684;48.358;10.746;2024-02-28T13:46:09;177.70;;;166.43;;
10013;SDS011;45684;48.358;10.746;2024-02-28T13:48:37;202.60;;;190.50;;
10013;SDS011;45684;48.358;10.746;2024-02-28T13:51:05;277.27;;;261.23;;